createdAt,value
2019-03-17T00:00:39.006Z,45.90
2019-03-17T00:03:05.655Z,45.80
2019-03-17T00:05:32.040Z,45.80
2019-03-17T00:07:58.284Z,45.80
2019-03-17T00:10:24.755Z,45.80
2019-03-17T00:12:51.177Z,45.80
2019-03-17T00:15:17.407Z,45.80
2019-03-17T00:17:43.799Z,45.80
2019-03-17T00:20:10.052Z,45.90
2019-03-17T00:22:36.329Z,45.90
2019-03-17T00:25:09.199Z,45.80
2019-03-17T00:27:29.176Z,45.90
2019-03-17T00:29:55.614Z,45.90
2019-03-17T00:32:21.991Z,45.90
2019-03-17T00:34:50.836Z,45.90
2019-03-17T00:37:14.683Z,45.90
2019-03-17T00:39:41.332Z,45.90
2019-03-17T00:42:07.737Z,45.80
2019-03-17T00:44:33.948Z,45.90
2019-03-17T00:47:00.178Z,45.80
2019-03-17T00:49:26.442Z,45.80
2019-03-17T00:51:52.883Z,45.80
2019-03-17T00:54:19.269Z,46.40
2019-03-17T00:56:45.750Z,45.90
2019-03-17T00:59:12.154Z,45.90
2019-03-17T01:01:38.362Z,45.80
2019-03-17T01:04:04.615Z,45.80
2019-03-17T01:06:31.066Z,45.80
2019-03-17T01:08:57.463Z,45.80
2019-03-17T01:11:25.369Z,45.90
2019-03-17T01:13:51.817Z,45.80
2019-03-17T01:16:18.184Z,45.80
2019-03-17T01:18:44.367Z,45.90
2019-03-17T01:21:10.655Z,45.90
2019-03-17T01:23:36.875Z,45.90
2019-03-17T01:26:03.358Z,45.90
2019-03-17T01:28:29.780Z,45.80
2019-03-17T01:30:56.199Z,45.80
2019-03-17T01:33:22.626Z,45.80
2019-03-17T01:35:48.886Z,45.80
2019-03-17T01:38:15.523Z,45.90
2019-03-17T01:40:41.955Z,45.90
2019-03-17T01:43:08.361Z,45.90
2019-03-17T01:45:34.598Z,45.80
2019-03-17T01:48:01.039Z,45.80
2019-03-17T01:50:27.446Z,45.80
2019-03-17T01:52:53.682Z,45.80
2019-03-17T01:55:19.908Z,45.90
2019-03-17T01:57:46.170Z,45.90
2019-03-17T02:00:13.216Z,45.80
2019-03-17T02:02:39.613Z,45.80
2019-03-17T02:05:05.862Z,45.80
2019-03-17T02:07:32.061Z,45.80
2019-03-17T02:09:58.336Z,45.80
2019-03-17T02:12:24.748Z,45.80
2019-03-17T02:14:50.954Z,45.80
2019-03-17T02:17:17.238Z,45.80
2019-03-17T02:19:43.719Z,45.80
2019-03-17T02:22:10.096Z,45.80
2019-03-17T02:24:36.491Z,45.70
2019-03-17T02:27:02.726Z,45.80
2019-03-17T02:29:29.139Z,45.80
2019-03-17T02:31:55.378Z,45.80
2019-03-17T02:34:21.861Z,45.70
2019-03-17T02:36:48.246Z,45.80
2019-03-17T02:39:14.736Z,45.80
2019-03-17T02:41:41.109Z,45.80
2019-03-17T02:44:07.345Z,45.80
2019-03-17T02:46:34.166Z,45.80
2019-03-17T02:49:01.132Z,45.80
2019-03-17T02:51:27.502Z,45.80
2019-03-17T02:53:53.917Z,45.80
2019-03-17T02:56:20.328Z,45.80
2019-03-17T02:58:46.574Z,45.80
2019-03-17T03:01:13.018Z,45.80
2019-03-17T03:03:39.443Z,45.70
2019-03-17T03:06:05.645Z,45.80
2019-03-17T03:08:33.769Z,45.80
2019-03-17T03:11:00.148Z,45.70
2019-03-17T03:13:26.383Z,45.80
2019-03-17T03:15:52.812Z,45.70
2019-03-17T03:18:19.030Z,45.70
2019-03-17T03:20:45.511Z,45.60
2019-03-17T03:23:11.913Z,45.50
2019-03-17T03:25:38.948Z,45.60
2019-03-17T03:28:06.813Z,45.50
2019-03-17T03:30:33.292Z,45.40
2019-03-17T03:32:59.769Z,45.50
2019-03-17T03:35:26.124Z,45.50
2019-03-17T03:37:52.541Z,45.50
2019-03-17T03:40:18.795Z,45.50
2019-03-17T03:42:45.012Z,45.50
2019-03-17T03:45:12.068Z,45.50
2019-03-17T03:47:38.523Z,45.40
2019-03-17T03:50:04.915Z,45.40
2019-03-17T03:52:31.149Z,45.40
2019-03-17T03:54:57.372Z,45.40
2019-03-17T03:57:23.868Z,45.40
2019-03-17T03:59:50.248Z,45.50
2019-03-17T04:02:16.679Z,45.60
2019-03-17T04:04:42.905Z,45.60
2019-03-17T04:07:09.172Z,45.60
2019-03-17T04:09:35.540Z,45.60
2019-03-17T04:12:01.788Z,46.30
2019-03-17T04:14:28.001Z,45.70
2019-03-17T04:16:54.308Z,45.70
2019-03-17T04:19:20.681Z,45.70
2019-03-17T04:21:47.149Z,45.70
2019-03-17T04:24:13.599Z,45.70
2019-03-17T04:26:39.903Z,45.80
2019-03-17T04:29:06.254Z,45.70
2019-03-17T04:31:32.649Z,45.80
2019-03-17T04:33:59.079Z,45.80
2019-03-17T04:36:39.153Z,45.70
2019-03-17T04:38:51.752Z,45.70
2019-03-17T04:41:17.968Z,45.80
2019-03-17T04:43:44.441Z,45.90
2019-03-17T04:46:10.852Z,45.90
2019-03-17T04:48:37.294Z,45.90
2019-03-17T04:51:03.715Z,45.90
2019-03-17T04:53:30.948Z,45.80
2019-03-17T04:55:57.218Z,45.90
2019-03-17T04:58:23.612Z,45.70
2019-03-17T05:00:49.876Z,45.80
2019-03-17T05:03:16.302Z,45.90
2019-03-17T05:05:42.693Z,46.00
2019-03-17T05:08:08.931Z,46.00
2019-03-17T05:10:35.172Z,46.00
2019-03-17T05:13:01.384Z,46.00
2019-03-17T05:15:27.607Z,46.00
2019-03-17T05:17:53.783Z,46.70
2019-03-17T05:20:20.320Z,46.20
2019-03-17T05:22:46.729Z,46.20
2019-03-17T05:25:12.932Z,46.20
2019-03-17T05:27:40.815Z,46.40
2019-03-17T05:30:08.655Z,46.40
2019-03-17T05:32:34.944Z,46.30
2019-03-17T05:35:01.351Z,46.40
2019-03-17T05:37:28.413Z,46.60
2019-03-17T05:39:54.815Z,46.50
2019-03-17T05:42:21.235Z,46.50
2019-03-17T05:44:47.551Z,46.70
2019-03-17T05:47:13.910Z,46.70
2019-03-17T05:49:40.153Z,46.60
2019-03-17T05:52:06.359Z,46.70
2019-03-17T05:54:32.589Z,46.70
2019-03-17T05:56:58.844Z,46.70
2019-03-17T05:59:25.561Z,46.80
2019-03-17T06:01:52.141Z,46.90
2019-03-17T06:04:18.521Z,46.80
2019-03-17T06:06:44.769Z,46.90
2019-03-17T06:09:10.983Z,46.80
2019-03-17T06:11:37.207Z,46.90
2019-03-17T06:14:03.451Z,46.90
2019-03-17T06:16:29.672Z,46.90
2019-03-17T06:18:56.968Z,47.00
2019-03-17T06:21:23.342Z,47.10
2019-03-17T06:23:49.588Z,47.10
2019-03-17T06:26:15.813Z,47.10
2019-03-17T06:28:42.303Z,47.20
2019-03-17T06:31:08.672Z,47.20
2019-03-17T06:33:34.923Z,47.20
2019-03-17T06:36:01.179Z,47.30
2019-03-17T06:38:27.570Z,47.20
2019-03-17T06:40:54.045Z,47.30
2019-03-17T06:43:20.251Z,47.30
2019-03-17T06:45:46.663Z,47.30
2019-03-17T06:48:14.513Z,47.40
2019-03-17T06:50:40.772Z,47.30
2019-03-17T06:53:07.813Z,47.60
2019-03-17T06:55:34.018Z,47.50
2019-03-17T06:58:00.511Z,47.50
2019-03-17T07:00:26.922Z,47.70
2019-03-17T07:02:53.383Z,47.60
2019-03-17T07:05:19.799Z,47.70
2019-03-17T07:07:46.215Z,47.70
2019-03-17T07:10:12.678Z,47.70
2019-03-17T07:12:39.068Z,47.70
2019-03-17T07:15:05.287Z,47.70
2019-03-17T07:17:33.170Z,47.70
2019-03-17T07:19:59.597Z,47.70
2019-03-17T07:22:25.820Z,47.90
2019-03-17T07:24:52.075Z,48.20
2019-03-17T07:27:18.291Z,48.20
2019-03-17T07:29:44.761Z,48.60
2019-03-17T07:32:11.199Z,48.80
2019-03-17T07:34:37.597Z,48.60
2019-03-17T07:37:03.820Z,48.90
2019-03-17T07:39:30.235Z,48.80
2019-03-17T07:41:57.167Z,48.80
2019-03-17T07:44:23.537Z,48.90
2019-03-17T07:46:49.759Z,48.90
2019-03-17T07:49:16.219Z,48.90
2019-03-17T07:51:42.630Z,48.90
2019-03-17T07:54:09.712Z,48.50
2019-03-17T07:56:36.085Z,48.50
2019-03-17T07:59:02.319Z,48.40
2019-03-17T08:01:28.531Z,48.30
2019-03-17T08:03:54.788Z,48.30
2019-03-17T08:06:20.996Z,48.10
2019-03-17T08:08:47.370Z,47.90
2019-03-17T08:11:13.711Z,47.70
2019-03-17T08:13:40.089Z,47.50
2019-03-17T08:16:06.574Z,47.20
2019-03-17T08:18:32.975Z,47.20
2019-03-17T08:20:59.204Z,47.10
2019-03-17T08:23:25.448Z,47.00
2019-03-17T08:25:51.867Z,46.90
2019-03-17T08:28:18.094Z,46.70
2019-03-17T08:30:53.043Z,46.70
2019-03-17T08:33:10.732Z,46.60
2019-03-17T08:35:36.960Z,46.60
2019-03-17T08:38:03.192Z,46.40
2019-03-17T08:40:29.426Z,46.10
2019-03-17T08:42:56.499Z,46.30
2019-03-17T08:45:22.919Z,46.30
2019-03-17T08:47:58.031Z,46.20
2019-03-17T08:50:16.050Z,46.30
2019-03-17T08:52:42.416Z,46.00
2019-03-17T08:55:09.448Z,46.20
2019-03-17T08:57:35.717Z,46.10
2019-03-17T09:00:02.206Z,45.90
2019-03-17T09:02:28.580Z,45.70
2019-03-17T09:04:55.032Z,46.00
2019-03-17T09:07:21.870Z,46.10
2019-03-17T09:09:48.255Z,45.80
2019-03-17T09:12:14.498Z,45.80
2019-03-17T09:14:40.751Z,45.70
2019-03-17T09:17:14.431Z,45.80
2019-03-17T09:19:33.840Z,45.30
2019-03-17T09:22:00.225Z,45.60
2019-03-17T09:24:26.415Z,45.70
2019-03-17T09:26:52.679Z,45.70
2019-03-17T09:29:18.935Z,45.40
2019-03-17T09:31:45.138Z,45.30
2019-03-17T09:34:11.359Z,45.60
2019-03-17T09:36:37.627Z,45.20
2019-03-17T09:39:04.284Z,45.30
2019-03-17T09:41:30.676Z,45.40
2019-03-17T09:43:58.551Z,45.20
2019-03-17T09:46:24.956Z,45.20
2019-03-17T09:48:51.215Z,45.20
2019-03-17T09:51:17.434Z,45.10
2019-03-17T09:53:43.902Z,45.10
2019-03-17T09:56:10.325Z,45.00
2019-03-17T09:58:36.724Z,45.20
2019-03-17T10:01:02.976Z,45.10
2019-03-17T10:03:29.211Z,44.80
2019-03-17T10:05:55.612Z,44.90
2019-03-17T10:08:21.824Z,44.90
2019-03-17T10:10:48.107Z,45.00
2019-03-17T10:13:14.752Z,45.10
2019-03-17T10:15:41.163Z,45.10
2019-03-17T10:18:07.397Z,45.10
2019-03-17T10:20:33.848Z,45.10
2019-03-17T10:23:00.239Z,45.00
2019-03-17T10:25:26.475Z,44.70
2019-03-17T10:27:52.715Z,44.90
2019-03-17T10:30:19.586Z,44.70
2019-03-17T10:32:45.965Z,44.70
2019-03-17T10:35:12.224Z,44.70
2019-03-17T10:37:38.676Z,43.50
2019-03-17T10:40:05.051Z,43.80
2019-03-17T10:42:34.148Z,44.00
2019-03-17T10:44:59.391Z,44.00
2019-03-17T10:47:26.049Z,44.00
2019-03-17T10:49:52.435Z,44.00
2019-03-17T10:52:18.927Z,44.00
2019-03-17T10:54:45.336Z,43.80
2019-03-17T10:57:11.756Z,43.90
2019-03-17T10:59:37.984Z,43.90
2019-03-17T11:02:04.439Z,43.80
2019-03-17T11:04:30.856Z,43.50
2019-03-17T11:06:57.072Z,43.40
2019-03-17T11:09:25.715Z,43.60
2019-03-17T11:11:51.238Z,43.50
2019-03-17T11:14:17.616Z,43.70
2019-03-17T11:16:44.075Z,43.50
2019-03-17T11:19:10.464Z,43.40
2019-03-17T11:21:38.376Z,43.30
2019-03-17T11:24:04.807Z,43.80
2019-03-17T11:26:31.177Z,43.40
2019-03-17T11:28:57.384Z,43.30
2019-03-17T11:31:23.658Z,43.40
2019-03-17T11:33:49.912Z,43.20
2019-03-17T11:36:16.299Z,43.00
2019-03-17T11:38:42.548Z,43.30
2019-03-17T11:41:08.988Z,43.00
2019-03-17T11:43:35.407Z,43.10
2019-03-17T11:46:01.632Z,42.90
2019-03-17T11:48:27.880Z,43.10
2019-03-17T11:50:54.336Z,42.80
2019-03-17T11:53:21.157Z,42.40
2019-03-17T11:55:47.599Z,42.40
2019-03-17T11:58:13.998Z,43.50
2019-03-17T12:00:41.037Z,42.10
2019-03-17T12:03:07.310Z,42.50
2019-03-17T12:05:33.714Z,42.30
2019-03-17T12:07:59.959Z,42.40
2019-03-17T12:10:26.382Z,42.20
2019-03-17T12:12:52.645Z,42.10
2019-03-17T12:15:19.040Z,42.30
2019-03-17T12:17:45.277Z,42.00
2019-03-17T12:20:11.527Z,42.20
2019-03-17T12:22:37.926Z,41.60
2019-03-17T12:25:04.401Z,41.60
2019-03-17T12:27:30.806Z,41.70
2019-03-17T12:29:57.269Z,41.50
2019-03-17T12:32:23.486Z,41.50
2019-03-17T12:34:49.910Z,41.30
2019-03-17T12:37:16.311Z,41.50
2019-03-17T12:39:42.567Z,41.70
2019-03-17T12:42:08.821Z,40.90
2019-03-17T12:44:35.233Z,41.50
2019-03-17T12:47:01.422Z,41.00
2019-03-17T12:49:27.667Z,40.60
2019-03-17T12:51:53.896Z,40.30
2019-03-17T12:54:21.771Z,40.00
2019-03-17T12:56:48.031Z,39.90
2019-03-17T12:59:14.454Z,40.10
2019-03-17T13:01:40.872Z,40.00
2019-03-17T13:04:07.279Z,39.60
2019-03-17T13:06:33.736Z,38.80
2019-03-17T13:09:01.109Z,39.50
2019-03-17T13:11:26.385Z,39.50
2019-03-17T13:13:52.601Z,39.10
2019-03-17T13:16:18.883Z,38.70
2019-03-17T13:18:45.313Z,39.10
2019-03-17T13:21:11.498Z,38.60
2019-03-17T13:23:37.788Z,38.60
2019-03-17T13:26:04.211Z,38.60
2019-03-17T13:28:30.619Z,38.50
2019-03-17T13:30:57.278Z,38.70
2019-03-17T13:33:23.683Z,38.60
2019-03-17T13:35:50.157Z,38.20
2019-03-17T13:38:16.557Z,38.40
2019-03-17T13:40:42.811Z,38.80
2019-03-17T13:43:09.458Z,38.50
2019-03-17T13:45:35.852Z,38.40
2019-03-17T13:48:03.720Z,37.50
2019-03-17T13:50:29.936Z,37.50
2019-03-17T13:52:56.408Z,38.00
2019-03-17T13:55:22.842Z,38.10
2019-03-17T13:57:49.277Z,38.50
2019-03-17T14:00:15.723Z,38.20
2019-03-17T14:02:42.143Z,38.20
2019-03-17T14:05:08.538Z,38.80
2019-03-17T14:07:34.987Z,38.40
2019-03-17T14:10:12.630Z,38.30
2019-03-17T14:12:28.692Z,38.30
2019-03-17T14:14:55.091Z,38.20
2019-03-17T14:17:22.974Z,38.30
2019-03-17T14:19:49.392Z,38.30
2019-03-17T14:22:15.874Z,38.30
2019-03-17T14:24:42.259Z,38.30
2019-03-17T14:27:08.504Z,38.40
2019-03-17T14:29:34.935Z,38.00
2019-03-17T14:32:02.116Z,38.40
2019-03-17T14:34:28.346Z,38.60
2019-03-17T14:36:54.613Z,38.10
2019-03-17T14:39:20.873Z,38.30
2019-03-17T14:41:47.344Z,37.90
2019-03-17T14:44:13.748Z,38.20
2019-03-17T14:46:40.135Z,38.60
2019-03-17T14:49:06.400Z,38.10
2019-03-17T14:51:32.590Z,38.30
2019-03-17T14:53:58.861Z,38.30
2019-03-17T14:56:25.518Z,38.30
2019-03-17T14:58:51.919Z,38.20
2019-03-17T15:01:18.384Z,38.40
2019-03-17T15:03:44.771Z,38.30
2019-03-17T15:06:11.070Z,38.40
2019-03-17T15:08:37.681Z,38.60
2019-03-17T15:11:06.091Z,38.30
2019-03-17T15:13:30.539Z,38.10
2019-03-17T15:16:02.816Z,37.70
2019-03-17T15:18:23.429Z,38.00
2019-03-17T15:20:50.074Z,37.70
2019-03-17T15:23:16.457Z,38.00
2019-03-17T15:25:42.904Z,38.00
2019-03-17T15:28:09.555Z,38.30
2019-03-17T15:30:35.967Z,38.00
2019-03-17T15:33:02.429Z,37.80
2019-03-17T15:35:28.866Z,38.10
2019-03-17T15:37:55.272Z,38.00
2019-03-17T15:40:21.670Z,38.20
2019-03-17T15:42:47.943Z,38.40
2019-03-17T15:45:14.351Z,38.20
2019-03-17T15:47:40.819Z,38.30
2019-03-17T15:50:07.224Z,38.00
2019-03-17T15:52:35.096Z,38.50
2019-03-17T15:55:02.167Z,38.30
2019-03-17T15:57:32.875Z,38.30
2019-03-17T15:59:59.086Z,38.10
2019-03-17T16:02:25.500Z,38.00
2019-03-17T16:04:51.704Z,37.40
2019-03-17T16:07:18.014Z,38.50
2019-03-17T16:09:44.413Z,38.00
2019-03-17T16:12:10.639Z,38.00
2019-03-17T16:14:37.098Z,38.20
2019-03-17T16:17:03.792Z,38.50
2019-03-17T16:19:30.189Z,38.10
2019-03-17T16:21:57.030Z,39.00
2019-03-17T16:24:23.667Z,38.20
2019-03-17T16:26:50.102Z,38.60
2019-03-17T16:29:16.808Z,38.60
2019-03-17T16:31:43.409Z,38.70
2019-03-17T16:34:09.824Z,38.70
2019-03-17T16:36:36.451Z,37.90
2019-03-17T16:39:03.108Z,37.80
2019-03-17T16:41:29.520Z,37.00
2019-03-17T16:43:55.907Z,37.60
2019-03-17T16:46:22.154Z,38.00
2019-03-17T16:48:48.620Z,36.70
2019-03-17T16:51:15.082Z,37.30
2019-03-17T16:53:41.435Z,37.50
2019-03-17T16:56:07.719Z,37.40
2019-03-17T16:58:34.130Z,37.00
2019-03-17T17:01:00.594Z,37.40
2019-03-17T17:03:26.988Z,37.30
2019-03-17T17:05:53.507Z,37.20
2019-03-17T17:08:19.900Z,37.20
2019-03-17T17:10:50.272Z,37.00
2019-03-17T17:13:12.906Z,37.20
2019-03-17T17:15:39.393Z,37.10
2019-03-17T17:18:06.234Z,37.40
2019-03-17T17:20:32.872Z,37.20
2019-03-17T17:22:59.274Z,36.90
2019-03-17T17:25:25.759Z,37.10
2019-03-17T17:27:52.370Z,37.10
2019-03-17T17:30:18.794Z,37.20
2019-03-17T17:32:45.294Z,37.70
2019-03-17T17:35:12.082Z,37.70
2019-03-17T17:37:38.492Z,37.70
2019-03-17T17:40:04.742Z,37.20
2019-03-17T17:42:31.389Z,37.20
2019-03-17T17:44:57.790Z,37.90
2019-03-17T17:47:24.449Z,37.70
2019-03-17T17:49:50.892Z,37.50
2019-03-17T17:52:17.552Z,38.00
2019-03-17T17:54:43.967Z,37.70
2019-03-17T17:57:10.613Z,37.80
2019-03-17T17:59:37.029Z,38.00
2019-03-17T18:02:03.479Z,38.00
2019-03-17T18:04:29.860Z,37.50
2019-03-17T18:06:57.351Z,37.60
2019-03-17T18:09:24.198Z,37.60
2019-03-17T18:11:50.647Z,37.60
2019-03-17T18:14:17.195Z,37.20
2019-03-17T18:16:45.337Z,37.30
2019-03-17T18:19:11.812Z,37.20
2019-03-17T18:21:38.818Z,37.60
2019-03-17T18:24:05.284Z,37.90
2019-03-17T18:26:31.563Z,37.60
2019-03-17T18:28:59.146Z,37.40
2019-03-17T18:31:25.560Z,37.40
2019-03-17T18:33:52.030Z,36.30
2019-03-17T18:36:18.435Z,36.60
2019-03-17T18:38:44.867Z,36.60
2019-03-17T18:41:11.278Z,36.20
2019-03-17T18:43:37.946Z,35.80
2019-03-17T18:46:04.380Z,36.00
2019-03-17T18:48:30.784Z,36.10
2019-03-17T18:50:57.224Z,36.50
2019-03-17T18:53:23.682Z,36.50
2019-03-17T18:55:50.109Z,36.00
2019-03-17T18:58:16.524Z,36.70
2019-03-17T19:00:42.985Z,36.80
2019-03-17T19:03:09.387Z,36.30
2019-03-17T19:05:35.632Z,36.30
2019-03-17T19:08:02.068Z,36.50
2019-03-17T19:10:28.490Z,36.10
2019-03-17T19:12:54.937Z,36.70
2019-03-17T19:15:21.356Z,36.20
2019-03-17T19:17:48.407Z,35.80
2019-03-17T19:20:14.677Z,35.80
2019-03-17T19:22:41.059Z,36.10
2019-03-17T19:25:07.495Z,35.90
2019-03-17T19:27:33.895Z,36.40
2019-03-17T19:30:00.445Z,36.40
2019-03-17T19:32:26.609Z,36.60
2019-03-17T19:34:53.016Z,36.60
2019-03-17T19:37:20.048Z,36.40
2019-03-17T19:39:46.295Z,36.40
2019-03-17T19:42:14.146Z,36.40
2019-03-17T19:44:42.031Z,36.50
2019-03-17T19:47:08.287Z,36.40
2019-03-17T19:49:34.479Z,36.20
2019-03-17T19:52:01.186Z,36.50
2019-03-17T19:54:27.179Z,36.20
2019-03-17T19:56:53.573Z,35.80
2019-03-17T19:59:19.787Z,36.00
2019-03-17T20:01:46.044Z,36.20
2019-03-17T20:04:12.267Z,36.00
2019-03-17T20:06:38.455Z,36.40
2019-03-17T20:09:05.821Z,36.20
2019-03-17T20:11:31.130Z,36.20
2019-03-17T20:13:57.422Z,36.00
2019-03-17T20:16:23.639Z,36.50
2019-03-17T20:18:50.064Z,36.10
2019-03-17T20:21:16.452Z,36.10
2019-03-17T20:23:43.529Z,36.20
2019-03-17T20:26:09.947Z,36.20
2019-03-17T20:28:36.380Z,35.90
2019-03-17T20:31:02.812Z,36.30
2019-03-17T20:33:29.084Z,36.10
2019-03-17T20:35:55.483Z,36.00
2019-03-17T20:38:21.948Z,36.10
2019-03-17T20:40:48.339Z,35.90
2019-03-17T20:43:23.745Z,36.10
2019-03-17T20:45:41.035Z,36.00
2019-03-17T20:48:07.521Z,36.10
2019-03-17T20:50:33.911Z,36.20
2019-03-17T20:53:00.311Z,35.90
2019-03-17T20:55:26.754Z,35.80
2019-03-17T20:57:53.182Z,35.90
2019-03-17T21:00:19.438Z,35.80
2019-03-17T21:02:45.857Z,35.70
2019-03-17T21:05:12.075Z,35.90
2019-03-17T21:07:38.328Z,35.90
2019-03-17T21:10:04.748Z,35.90
2019-03-17T21:12:31.167Z,36.00
2019-03-17T21:14:58.196Z,35.90
2019-03-17T21:17:24.473Z,35.80
2019-03-17T21:19:50.849Z,35.70
2019-03-17T21:22:17.100Z,35.60
2019-03-17T21:24:44.187Z,35.90
2019-03-17T21:27:10.575Z,35.90
2019-03-17T21:29:38.479Z,36.00
2019-03-17T21:32:04.899Z,35.90
2019-03-17T21:34:31.312Z,35.90
2019-03-17T21:36:57.537Z,36.10
2019-03-17T21:39:23.803Z,35.90
2019-03-17T21:41:50.440Z,35.70
2019-03-17T21:44:16.857Z,35.70
2019-03-17T21:46:43.071Z,35.70
2019-03-17T21:49:09.299Z,35.80
2019-03-17T21:51:35.567Z,35.90
2019-03-17T21:54:01.987Z,35.70
2019-03-17T21:56:28.427Z,35.60
2019-03-17T21:58:54.831Z,35.70
2019-03-17T22:01:21.256Z,35.70
2019-03-17T22:03:49.183Z,35.60
2019-03-17T22:06:15.381Z,35.70
2019-03-17T22:08:41.843Z,35.70
2019-03-17T22:11:08.895Z,35.60
2019-03-17T22:13:35.260Z,35.40
2019-03-17T22:16:01.734Z,35.70
2019-03-17T22:18:28.125Z,35.80
2019-03-17T22:20:54.348Z,35.50
2019-03-17T22:23:22.220Z,35.90
2019-03-17T22:25:48.444Z,35.80
2019-03-17T22:28:14.667Z,35.80
2019-03-17T22:30:40.949Z,35.70
2019-03-17T22:33:07.332Z,35.70
2019-03-17T22:35:35.212Z,35.80
2019-03-17T22:38:01.458Z,35.70
2019-03-17T22:40:27.869Z,35.60
2019-03-17T22:42:54.084Z,35.60
2019-03-17T22:45:20.338Z,35.90
2019-03-17T22:47:46.551Z,35.70
2019-03-17T22:50:12.767Z,35.60
2019-03-17T22:52:39.001Z,35.40
2019-03-17T22:55:05.255Z,35.50
2019-03-17T22:57:31.923Z,35.60
2019-03-17T22:59:58.319Z,35.50
2019-03-17T23:02:24.537Z,35.70
2019-03-17T23:04:51.018Z,35.60
2019-03-17T23:07:17.449Z,35.90
2019-03-17T23:09:43.843Z,35.60
2019-03-17T23:12:11.914Z,35.60
2019-03-17T23:14:38.124Z,35.40
2019-03-17T23:17:04.352Z,35.50
2019-03-17T23:19:30.587Z,35.60
2019-03-17T23:21:56.821Z,35.50
2019-03-17T23:24:23.071Z,35.50
2019-03-17T23:26:49.490Z,35.30
2019-03-17T23:29:15.715Z,35.60
2019-03-17T23:31:41.941Z,35.30
2019-03-17T23:34:08.209Z,35.50
2019-03-17T23:36:34.851Z,35.60
2019-03-17T23:39:01.233Z,35.50
2019-03-17T23:41:27.476Z,35.30
2019-03-17T23:43:55.347Z,35.80
2019-03-17T23:46:21.809Z,35.50
2019-03-17T23:48:48.176Z,35.50
2019-03-17T23:51:14.424Z,35.40
2019-03-17T23:53:40.677Z,35.40
2019-03-17T23:56:07.104Z,35.40
2019-03-17T23:58:33.592Z,35.20
